sensor_id;sensor_type;location;lat;lon;timestamp;pressure;altitude;pressure_sealevel;temperature;humidity
43115;BME280;28727;50.068;14.452;2022-12-20T00:00:14;100314.84;;;0.26;73.78
43115;BME280;28727;50.068;14.452;2022-12-20T00:02:45;100327.16;;;0.23;73.90
43115;BME280;28727;50.068;14.452;2022-12-20T00:05:17;100333.25;;;0.22;73.95
43115;BME280;28727;50.068;14.452;2022-12-20T00:07:49;100326.38;;;0.21;74.10
43115;BME280;28727;50.068;14.452;2022-12-20T00:10:20;100332.41;;;0.21;73.80
43115;BME280;28727;50.068;14.452;2022-12-20T00:12:52;100329.91;;;0.20;74.31
43115;BME280;28727;50.068;14.452;2022-12-20T00:15:24;100322.09;;;0.20;74.00
43115;BME280;28727;50.068;14.452;2022-12-20T00:17:56;100321.44;;;0.16;74.36
43115;BME280;28727;50.068;14.452;2022-12-20T00:20:28;100316.97;;;0.18;74.15
43115;BME280;28727;50.068;14.452;2022-12-20T00:23:00;100311.13;;;0.15;74.24
43115;BME280;28727;50.068;14.452;2022-12-20T00:25:32;100313.88;;;0.12;73.90
43115;BME280;28727;50.068;14.452;2022-12-20T00:28:03;100315.72;;;0.10;74.50
43115;BME280;28727;50.068;14.452;2022-12-20T00:30:35;100313.97;;;0.10;74.31
43115;BME280;28727;50.068;14.452;2022-12-20T00:33:08;100321.81;;;0.09;74.29
43115;BME280;28727;50.068;14.452;2022-12-20T00:35:41;100311.66;;;0.04;74.31
43115;BME280;28727;50.068;14.452;2022-12-20T00:38:14;100309.22;;;0.01;74.57
43115;BME280;28727;50.068;14.452;2022-12-20T00:40:46;100298.00;;;0.00;74.48
43115;BME280;28727;50.068;14.452;2022-12-20T00:43:17;100289.59;;;-0.05;74.37
43115;BME280;28727;50.068;14.452;2022-12-20T00:45:50;100296.66;;;-0.07;74.67
43115;BME280;28727;50.068;14.452;2022-12-20T00:48:22;100296.53;;;-0.05;74.44
43115;BME280;28727;50.068;14.452;2022-12-20T00:51:02;100293.09;;;-0.06;74.50
43115;BME280;28727;50.068;14.452;2022-12-20T00:53:38;100289.69;;;-0.06;74.65
43115;BME280;28727;50.068;14.452;2022-12-20T00:56:10;100292.28;;;-0.06;74.44
43115;BME280;28727;50.068;14.452;2022-12-20T00:58:42;100299.44;;;-0.11;74.69
43115;BME280;28727;50.068;14.452;2022-12-20T01:01:23;100313.28;;;-0.11;75.00
43115;BME280;28727;50.068;14.452;2022-12-20T01:03:55;100312.44;;;-0.11;74.61
43115;BME280;28727;50.068;14.452;2022-12-20T01:06:29;100303.97;;;-0.15;74.62
43115;BME280;28727;50.068;14.452;2022-12-20T01:09:01;100297.09;;;-0.16;74.72
43115;BME280;28727;50.068;14.452;2022-12-20T01:11:36;100305.06;;;-0.19;74.71
43115;BME280;28727;50.068;14.452;2022-12-20T01:14:14;100290.22;;;-0.17;75.02
43115;BME280;28727;50.068;14.452;2022-12-20T01:16:49;100286.72;;;-0.16;74.80
43115;BME280;28727;50.068;14.452;2022-12-20T01:19:20;100290.31;;;-0.18;74.74
43115;BME280;28727;50.068;14.452;2022-12-20T01:21:52;100286.88;;;-0.19;74.94
43115;BME280;28727;50.068;14.452;2022-12-20T01:24:24;100285.13;;;-0.18;74.62
43115;BME280;28727;50.068;14.452;2022-12-20T01:26:55;100278.25;;;-0.19;74.30
43115;BME280;28727;50.068;14.452;2022-12-20T01:29:27;100283.44;;;-0.19;74.60
43115;BME280;28727;50.068;14.452;2022-12-20T01:31:59;100283.69;;;-0.24;74.75
43115;BME280;28727;50.068;14.452;2022-12-20T01:34:30;100273.31;;;-0.24;74.43
43115;BME280;28727;50.068;14.452;2022-12-20T01:37:02;100276.81;;;-0.25;74.72
43115;BME280;28727;50.068;14.452;2022-12-20T01:39:34;100269.09;;;-0.26;74.52
43115;BME280;28727;50.068;14.452;2022-12-20T01:42:06;100270.84;;;-0.27;74.37
43115;BME280;28727;50.068;14.452;2022-12-20T01:47:12;100266.81;;;-0.32;74.71
43115;BME280;28727;50.068;14.452;2022-12-20T01:49:46;100268.72;;;-0.36;74.79
43115;BME280;28727;50.068;14.452;2022-12-20T01:52:27;100255.59;;;-0.33;74.68
43115;BME280;28727;50.068;14.452;2022-12-20T01:55:06;100253.81;;;-0.32;74.51
43115;BME280;28727;50.068;14.452;2022-12-20T01:57:50;100252.06;;;-0.32;74.27
43115;BME280;28727;50.068;14.452;2022-12-20T02:00:26;100259.03;;;-0.32;74.23
43115;BME280;28727;50.068;14.452;2022-12-20T02:03:02;100269.22;;;-0.29;74.27
43115;BME280;28727;50.068;14.452;2022-12-20T02:05:38;100273.69;;;-0.31;74.49
43115;BME280;28727;50.068;14.452;2022-12-20T02:08:12;100270.25;;;-0.32;73.96
43115;BME280;28727;50.068;14.452;2022-12-20T02:14:04;100261.63;;;-0.32;74.32
43115;BME280;28727;50.068;14.452;2022-12-20T02:16:44;100248.72;;;-0.34;74.07
43115;BME280;28727;50.068;14.452;2022-12-20T02:19:55;100252.16;;;-0.33;74.00
43115;BME280;28727;50.068;14.452;2022-12-20T02:26:03;100242.06;;;-0.39;73.95
43115;BME280;28727;50.068;14.452;2022-12-20T02:31:28;100242.03;;;-0.55;74.25
43115;BME280;28727;50.068;14.452;2022-12-20T02:34:08;100243.16;;;-0.61;74.34
43115;BME280;28727;50.068;14.452;2022-12-20T02:36:41;100242.38;;;-0.63;74.34
43115;BME280;28727;50.068;14.452;2022-12-20T02:39:15;100245.00;;;-0.63;74.59
43115;BME280;28727;50.068;14.452;2022-12-20T02:41:51;100242.38;;;-0.63;74.43
43115;BME280;28727;50.068;14.452;2022-12-20T02:44:27;100244.91;;;-0.61;74.40
43115;BME280;28727;50.068;14.452;2022-12-20T02:47:28;100240.94;;;-0.68;74.42
43115;BME280;28727;50.068;14.452;2022-12-20T02:50:03;100241.66;;;-0.65;74.51
43115;BME280;28727;50.068;14.452;2022-12-20T02:52:38;100250.19;;;-0.63;74.46
43115;BME280;28727;50.068;14.452;2022-12-20T02:55:13;100242.38;;;-0.63;74.09
43115;BME280;28727;50.068;14.452;2022-12-20T03:00:31;100233.53;;;-0.59;73.97
43115;BME280;28727;50.068;14.452;2022-12-20T03:03:08;100224.47;;;-0.67;74.04
43115;BME280;28727;50.068;14.452;2022-12-20T03:05:55;100222.25;;;-0.75;74.20
43115;BME280;28727;50.068;14.452;2022-12-20T03:08:27;100217.28;;;-0.79;74.72
43115;BME280;28727;50.068;14.452;2022-12-20T03:10:59;100225.25;;;-0.82;74.59
43115;BME280;28727;50.068;14.452;2022-12-20T03:13:34;100237.28;;;-0.82;74.62
43115;BME280;28727;50.068;14.452;2022-12-20T03:16:10;100225.16;;;-0.81;74.51
43115;BME280;28727;50.068;14.452;2022-12-20T03:18:42;100231.09;;;-0.79;74.87
43115;BME280;28727;50.068;14.452;2022-12-20T03:21:16;100226.53;;;-0.74;74.68
43115;BME280;28727;50.068;14.452;2022-12-20T03:23:48;100219.41;;;-0.70;74.63
43115;BME280;28727;50.068;14.452;2022-12-20T03:26:19;100219.59;;;-0.73;73.97
43115;BME280;28727;50.068;14.452;2022-12-20T03:29:00;100223.88;;;-0.72;74.71
43115;BME280;28727;50.068;14.452;2022-12-20T03:31:33;100217.78;;;-0.71;74.33
43115;BME280;28727;50.068;14.452;2022-12-20T03:34:08;100218.69;;;-0.72;74.38
43115;BME280;28727;50.068;14.452;2022-12-20T03:36:40;100221.19;;;-0.71;74.45
43115;BME280;28727;50.068;14.452;2022-12-20T03:39:12;100214.22;;;-0.70;74.27
43115;BME280;28727;50.068;14.452;2022-12-20T03:41:44;100227.00;;;-0.66;74.34
43115;BME280;28727;50.068;14.452;2022-12-20T03:44:20;100228.44;;;-0.60;74.05
43115;BME280;28727;50.068;14.452;2022-12-20T03:46:53;100218.06;;;-0.60;74.26
43115;BME280;28727;50.068;14.452;2022-12-20T03:49:24;100223.25;;;-0.60;73.71
43115;BME280;28727;50.068;14.452;2022-12-20T03:51:56;100230.13;;;-0.59;73.87
43115;BME280;28727;50.068;14.452;2022-12-20T03:54:28;100212.78;;;-0.59;73.93
43115;BME280;28727;50.068;14.452;2022-12-20T03:57:21;100215.53;;;-0.62;73.72
43115;BME280;28727;50.068;14.452;2022-12-20T03:59:54;100220.91;;;-0.65;73.67
43115;BME280;28727;50.068;14.452;2022-12-20T04:02:27;100224.41;;;-0.66;73.54
43115;BME280;28727;50.068;14.452;2022-12-20T04:04:59;100225.06;;;-0.79;74.52
43115;BME280;28727;50.068;14.452;2022-12-20T04:07:31;100217.22;;;-0.78;74.30
43115;BME280;28727;50.068;14.452;2022-12-20T04:10:03;100219.81;;;-0.78;74.30
43115;BME280;28727;50.068;14.452;2022-12-20T04:12:35;100218.75;;;-0.74;74.20
43115;BME280;28727;50.068;14.452;2022-12-20T04:15:10;100216.16;;;-0.74;74.21
43115;BME280;28727;50.068;14.452;2022-12-20T04:17:43;100215.31;;;-0.74;74.26
43115;BME280;28727;50.068;14.452;2022-12-20T04:20:16;100231.47;;;-0.69;74.67
43115;BME280;28727;50.068;14.452;2022-12-20T04:22:58;100236.47;;;-0.65;74.59
43115;BME280;28727;50.068;14.452;2022-12-20T04:25:29;100228.97;;;-0.54;73.96
43115;BME280;28727;50.068;14.452;2022-12-20T04:28:04;100222.63;;;-0.48;73.77
43115;BME280;28727;50.068;14.452;2022-12-20T04:30:36;100210.41;;;-0.46;73.88
43115;BME280;28727;50.068;14.452;2022-12-20T04:33:08;100200.88;;;-0.46;73.56
43115;BME280;28727;50.068;14.452;2022-12-20T04:35:39;100203.78;;;-0.52;73.23
43115;BME280;28727;50.068;14.452;2022-12-20T04:38:11;100216.69;;;-0.50;73.08
43115;BME280;28727;50.068;14.452;2022-12-20T04:40:44;100215.22;;;-0.56;73.57
43115;BME280;28727;50.068;14.452;2022-12-20T04:43:16;100227.06;;;-0.50;73.08
43115;BME280;28727;50.068;14.452;2022-12-20T04:45:50;100251.78;;;-0.60;72.92
43115;BME280;28727;50.068;14.452;2022-12-20T04:48:26;100266.50;;;-0.61;73.75
43115;BME280;28727;50.068;14.452;2022-12-20T04:51:18;100235.06;;;-0.55;73.59
43115;BME280;28727;50.068;14.452;2022-12-20T04:53:49;100217.53;;;-0.50;73.34
43115;BME280;28727;50.068;14.452;2022-12-20T04:56:50;100223.56;;;-0.49;73.05
43115;BME280;28727;50.068;14.452;2022-12-20T04:59:25;100219.81;;;-0.44;73.18
43115;BME280;28727;50.068;14.452;2022-12-20T05:01:58;100229.16;;;-0.41;72.71
43115;BME280;28727;50.068;14.452;2022-12-20T05:05:03;100231.16;;;-0.46;72.87
43115;BME280;28727;50.068;14.452;2022-12-20T05:07:40;100219.94;;;-0.47;72.89
43115;BME280;28727;50.068;14.452;2022-12-20T05:10:11;100217.66;;;-0.53;73.00
43115;BME280;28727;50.068;14.452;2022-12-20T05:12:44;100220.25;;;-0.53;73.57
43115;BME280;28727;50.068;14.452;2022-12-20T05:15:24;100219.28;;;-0.50;73.14
43115;BME280;28727;50.068;14.452;2022-12-20T05:17:56;100231.94;;;-0.44;73.22
43115;BME280;28727;50.068;14.452;2022-12-20T05:20:36;100226.50;;;-0.39;72.72
43115;BME280;28727;50.068;14.452;2022-12-20T05:23:09;100212.53;;;-0.37;72.95
43115;BME280;28727;50.068;14.452;2022-12-20T05:26:09;100209.63;;;-0.31;72.93
43115;BME280;28727;50.068;14.452;2022-12-20T05:28:52;100197.72;;;-0.35;72.71
43115;BME280;28727;50.068;14.452;2022-12-20T05:31:24;100185.69;;;-0.36;72.97
43115;BME280;28727;50.068;14.452;2022-12-20T05:33:56;100171.94;;;-0.38;72.80
43115;BME280;28727;50.068;14.452;2022-12-20T05:36:33;100174.59;;;-0.39;72.88
43115;BME280;28727;50.068;14.452;2022-12-20T05:39:07;100174.19;;;-0.48;73.43
43115;BME280;28727;50.068;14.452;2022-12-20T05:41:43;100170.56;;;-0.45;73.40
43115;BME280;28727;50.068;14.452;2022-12-20T05:44:15;100160.88;;;-0.42;73.21
43115;BME280;28727;50.068;14.452;2022-12-20T05:46:51;100158.38;;;-0.43;73.06
43115;BME280;28727;50.068;14.452;2022-12-20T05:49:29;100153.25;;;-0.45;73.19
43115;BME280;28727;50.068;14.452;2022-12-20T05:52:07;100142.28;;;-0.50;73.39
43115;BME280;28727;50.068;14.452;2022-12-20T05:54:40;100154.34;;;-0.49;73.12
43115;BME280;28727;50.068;14.452;2022-12-20T05:57:15;100169.59;;;-0.43;73.64
43115;BME280;28727;50.068;14.452;2022-12-20T05:59:47;100193.59;;;-0.39;73.60
43115;BME280;28727;50.068;14.452;2022-12-20T06:02:25;100195.97;;;-0.34;73.31
43115;BME280;28727;50.068;14.452;2022-12-20T06:05:05;100229.56;;;-0.31;73.19
43115;BME280;28727;50.068;14.452;2022-12-20T06:07:36;100231.00;;;-0.26;73.21
43115;BME280;28727;50.068;14.452;2022-12-20T06:10:09;100232.38;;;-0.19;72.87
43115;BME280;28727;50.068;14.452;2022-12-20T06:12:52;100232.19;;;-0.16;72.28
43115;BME280;28727;50.068;14.452;2022-12-20T06:15:24;100214.84;;;-0.15;72.54
43115;BME280;28727;50.068;14.452;2022-12-20T06:17:56;100199.22;;;-0.14;72.41
43115;BME280;28727;50.068;14.452;2022-12-20T06:20:30;100205.91;;;-0.10;72.24
43115;BME280;28727;50.068;14.452;2022-12-20T06:23:04;100190.34;;;-0.10;72.56
43115;BME280;28727;50.068;14.452;2022-12-20T06:25:43;100183.56;;;-0.12;72.14
43115;BME280;28727;50.068;14.452;2022-12-20T06:28:15;100182.88;;;-0.16;72.58
43115;BME280;28727;50.068;14.452;2022-12-20T06:30:54;100185.63;;;-0.19;72.68
43115;BME280;28727;50.068;14.452;2022-12-20T06:33:43;100172.66;;;-0.19;72.29
43115;BME280;28727;50.068;14.452;2022-12-20T06:36:17;100178.00;;;-0.22;72.90
43115;BME280;28727;50.068;14.452;2022-12-20T06:38:49;100171.81;;;-0.19;73.22
43115;BME280;28727;50.068;14.452;2022-12-20T06:41:21;100155.00;;;-0.12;72.94
43115;BME280;28727;50.068;14.452;2022-12-20T06:43:54;100136.72;;;-0.11;72.98
43115;BME280;28727;50.068;14.452;2022-12-20T06:46:26;100132.31;;;-0.09;72.78
43115;BME280;28727;50.068;14.452;2022-12-20T06:48:59;100155.91;;;-0.13;72.79
43115;BME280;28727;50.068;14.452;2022-12-20T06:51:31;100154.06;;;-0.11;73.19
43115;BME280;28727;50.068;14.452;2022-12-20T06:54:04;100148.53;;;-0.05;72.62
43115;BME280;28727;50.068;14.452;2022-12-20T06:56:38;100180.03;;;-0.11;73.10
43115;BME280;28727;50.068;14.452;2022-12-20T06:59:15;100205.78;;;-0.07;73.03
43115;BME280;28727;50.068;14.452;2022-12-20T07:01:47;100196.81;;;-0.01;73.06
43115;BME280;28727;50.068;14.452;2022-12-20T07:04:19;100191.28;;;0.05;73.17
43115;BME280;28727;50.068;14.452;2022-12-20T07:06:50;100203.78;;;0.14;72.81
43115;BME280;28727;50.068;14.452;2022-12-20T07:09:22;100212.16;;;0.19;72.53
43115;BME280;28727;50.068;14.452;2022-12-20T07:11:54;100185.00;;;0.25;72.28
43115;BME280;28727;50.068;14.452;2022-12-20T07:14:26;100165.84;;;0.27;72.19
43115;BME280;28727;50.068;14.452;2022-12-20T07:16:58;100137.91;;;0.31;71.99
43115;BME280;28727;50.068;14.452;2022-12-20T07:19:30;100081.50;;;0.33;71.76
43115;BME280;28727;50.068;14.452;2022-12-20T07:22:03;100050.94;;;0.22;72.14
43115;BME280;28727;50.068;14.452;2022-12-20T07:24:36;100038.88;;;0.21;72.08
43115;BME280;28727;50.068;14.452;2022-12-20T07:27:09;100045.94;;;0.04;72.24
43115;BME280;28727;50.068;14.452;2022-12-20T07:29:42;100109.00;;;-0.10;72.75
43115;BME280;28727;50.068;14.452;2022-12-20T07:32:14;100120.81;;;-0.05;73.12
43115;BME280;28727;50.068;14.452;2022-12-20T07:34:45;100143.97;;;0.16;72.62
43115;BME280;28727;50.068;14.452;2022-12-20T07:37:17;100143.78;;;0.34;72.01
43115;BME280;28727;50.068;14.452;2022-12-20T07:39:48;100143.59;;;0.53;71.22
43115;BME280;28727;50.068;14.452;2022-12-20T07:42:20;100185.44;;;0.64;71.10
43115;BME280;28727;50.068;14.452;2022-12-20T07:44:54;100197.97;;;0.72;70.88
43115;BME280;28727;50.068;14.452;2022-12-20T07:47:25;100168.25;;;0.92;70.92
43115;BME280;28727;50.068;14.452;2022-12-20T07:49:58;100153.78;;;1.02;70.62
43115;BME280;28727;50.068;14.452;2022-12-20T07:52:32;100180.13;;;1.11;70.08
43115;BME280;28727;50.068;14.452;2022-12-20T07:55:06;100176.34;;;1.17;69.94
43115;BME280;28727;50.068;14.452;2022-12-20T07:57:45;100171.63;;;1.23;69.20
43115;BME280;28727;50.068;14.452;2022-12-20T08:00:19;100158.91;;;1.33;69.42
43115;BME280;28727;50.068;14.452;2022-12-20T08:02:58;100157.94;;;1.20;68.42
43115;BME280;28727;50.068;14.452;2022-12-20T08:05:33;100151.16;;;1.17;69.35
43115;BME280;28727;50.068;14.452;2022-12-20T08:08:05;100145.19;;;1.15;68.53
43115;BME280;28727;50.068;14.452;2022-12-20T08:10:37;100158.28;;;1.14;68.68
43115;BME280;28727;50.068;14.452;2022-12-20T08:13:09;100154.28;;;1.08;68.81
43115;BME280;28727;50.068;14.452;2022-12-20T08:15:41;100154.28;;;1.08;68.85
43115;BME280;28727;50.068;14.452;2022-12-20T08:18:13;100160.59;;;1.04;69.19
43115;BME280;28727;50.068;14.452;2022-12-20T08:20:46;100157.91;;;1.06;68.88
43115;BME280;28727;50.068;14.452;2022-12-20T08:23:18;100152.94;;;1.17;68.77
43115;BME280;28727;50.068;14.452;2022-12-20T08:25:50;100141.31;;;1.22;68.13
43115;BME280;28727;50.068;14.452;2022-12-20T08:28:21;100128.88;;;1.28;68.44
43115;BME280;28727;50.068;14.452;2022-12-20T08:31:02;100137.88;;;1.36;68.50
43115;BME280;28727;50.068;14.452;2022-12-20T08:33:35;100136.97;;;1.51;68.07
43115;BME280;28727;50.068;14.452;2022-12-20T08:36:10;100128.41;;;1.49;67.73
43115;BME280;28727;50.068;14.452;2022-12-20T08:38:43;100098.97;;;2.04;66.08
43115;BME280;28727;50.068;14.452;2022-12-20T08:41:15;100088.13;;;2.51;64.44
43115;BME280;28727;50.068;14.452;2022-12-20T08:43:46;100121.09;;;2.52;64.26
43115;BME280;28727;50.068;14.452;2022-12-20T08:46:18;100120.72;;;3.48;64.10
43115;BME280;28727;50.068;14.452;2022-12-20T08:48:50;100135.19;;;4.63;60.43
43115;BME280;28727;50.068;14.452;2022-12-20T08:51:22;100130.06;;;5.31;58.69
43115;BME280;28727;50.068;14.452;2022-12-20T08:53:54;100086.88;;;5.93;55.75
43115;BME280;28727;50.068;14.452;2022-12-20T08:56:26;100108.31;;;6.84;51.62
43115;BME280;28727;50.068;14.452;2022-12-20T08:58:57;100096.88;;;7.47;50.81
43115;BME280;28727;50.068;14.452;2022-12-20T09:01:29;100077.88;;;8.23;49.73
43115;BME280;28727;50.068;14.452;2022-12-20T09:04:04;100114.66;;;7.64;48.22
43115;BME280;28727;50.068;14.452;2022-12-20T09:06:36;100103.41;;;7.32;49.48
43115;BME280;28727;50.068;14.452;2022-12-20T09:09:07;100120.47;;;7.68;48.35
43115;BME280;28727;50.068;14.452;2022-12-20T09:11:39;100108.41;;;8.55;46.52
43115;BME280;28727;50.068;14.452;2022-12-20T09:14:11;100124.50;;;9.10;44.09
43115;BME280;28727;50.068;14.452;2022-12-20T09:16:42;100130.78;;;8.89;45.41
43115;BME280;28727;50.068;14.452;2022-12-20T09:19:14;100135.34;;;9.07;45.47
43115;BME280;28727;50.068;14.452;2022-12-20T09:21:46;100127.84;;;8.14;46.27
43115;BME280;28727;50.068;14.452;2022-12-20T09:24:18;100129.31;;;6.84;48.42
43115;BME280;28727;50.068;14.452;2022-12-20T09:26:49;100111.53;;;6.12;51.04
43115;BME280;28727;50.068;14.452;2022-12-20T09:29:22;100130.03;;;5.89;51.69
43115;BME280;28727;50.068;14.452;2022-12-20T09:32:04;100135.47;;;5.63;52.19
43115;BME280;28727;50.068;14.452;2022-12-20T09:34:35;100139.91;;;6.07;52.15
43115;BME280;28727;50.068;14.452;2022-12-20T09:37:07;100124.66;;;6.55;50.89
43115;BME280;28727;50.068;14.452;2022-12-20T09:39:39;100127.94;;;7.93;48.73
43115;BME280;28727;50.068;14.452;2022-12-20T09:42:13;100112.47;;;8.69;46.74
43115;BME280;28727;50.068;14.452;2022-12-20T09:44:45;100109.03;;;9.43;43.52
43115;BME280;28727;50.068;14.452;2022-12-20T09:47:20;100106.22;;;8.98;43.82
43115;BME280;28727;50.068;14.452;2022-12-20T09:49:55;100095.94;;;8.67;44.48
43115;BME280;28727;50.068;14.452;2022-12-20T09:52:46;100078.75;;;8.34;44.61
43115;BME280;28727;50.068;14.452;2022-12-20T09:55:41;100090.44;;;8.10;45.52
43115;BME280;28727;50.068;14.452;2022-12-20T10:01:19;100093.59;;;6.92;47.31
43115;BME280;28727;50.068;14.452;2022-12-20T10:04:00;100096.38;;;6.59;48.72
43115;BME280;28727;50.068;14.452;2022-12-20T10:23:16;100084.47;;;6.01;51.67
43115;BME280;28727;50.068;14.452;2022-12-20T10:26:07;100093.38;;;6.64;50.81
43115;BME280;28727;50.068;14.452;2022-12-20T10:28:43;100087.47;;;6.50;49.56
43115;BME280;28727;50.068;14.452;2022-12-20T10:31:22;100079.47;;;5.98;50.31
43115;BME280;28727;50.068;14.452;2022-12-20T10:33:55;100062.44;;;5.81;51.59
43115;BME280;28727;50.068;14.452;2022-12-20T10:36:30;100044.59;;;5.64;51.84
43115;BME280;28727;50.068;14.452;2022-12-20T10:39:07;100051.47;;;5.09;53.03
43115;BME280;28727;50.068;14.452;2022-12-20T10:44:24;100045.19;;;4.42;55.06
43115;BME280;28727;50.068;14.452;2022-12-20T10:46:58;100038.91;;;4.21;55.48
43115;BME280;28727;50.068;14.452;2022-12-20T10:49:36;100034.19;;;4.26;56.20
43115;BME280;28727;50.068;14.452;2022-12-20T10:54:42;100032.34;;;3.91;57.85
43115;BME280;28727;50.068;14.452;2022-12-20T10:57:19;100056.88;;;4.01;58.13
43115;BME280;28727;50.068;14.452;2022-12-20T11:00:26;100066.13;;;3.94;57.71
43115;BME280;28727;50.068;14.452;2022-12-20T11:03:20;100046.59;;;3.87;57.65
43115;BME280;28727;50.068;14.452;2022-12-20T11:05:59;100040.84;;;3.82;58.02
43115;BME280;28727;50.068;14.452;2022-12-20T11:08:33;100036.47;;;3.83;57.73
43115;BME280;28727;50.068;14.452;2022-12-20T11:11:22;100035.44;;;3.72;57.72
43115;BME280;28727;50.068;14.452;2022-12-20T11:14:12;100036.22;;;3.49;58.11
43115;BME280;28727;50.068;14.452;2022-12-20T11:16:45;100040.41;;;3.39;59.01
43115;BME280;28727;50.068;14.452;2022-12-20T11:19:30;100062.25;;;3.25;59.15
43115;BME280;28727;50.068;14.452;2022-12-20T11:24:55;100049.59;;;3.19;59.73
43115;BME280;28727;50.068;14.452;2022-12-20T11:27:47;100051.19;;;3.22;59.52
43115;BME280;28727;50.068;14.452;2022-12-20T11:30:27;100037.38;;;3.20;60.00
43115;BME280;28727;50.068;14.452;2022-12-20T11:36:05;100023.50;;;3.19;60.37
43115;BME280;28727;50.068;14.452;2022-12-20T11:38:51;100010.34;;;3.21;60.33
43115;BME280;28727;50.068;14.452;2022-12-20T11:56:01;99992.09;;;3.21;60.35
43115;BME280;28727;50.068;14.452;2022-12-20T12:01:45;99963.94;;;2.88;60.56
43115;BME280;28727;50.068;14.452;2022-12-20T12:04:25;99953.06;;;2.69;61.16
43115;BME280;28727;50.068;14.452;2022-12-20T12:07:06;99960.47;;;2.62;61.72
43115;BME280;28727;50.068;14.452;2022-12-20T12:09:46;99954.22;;;2.52;61.27
43115;BME280;28727;50.068;14.452;2022-12-20T12:12:25;99955.66;;;2.43;61.34
43115;BME280;28727;50.068;14.452;2022-12-20T12:18:02;99928.03;;;2.28;62.21
43115;BME280;28727;50.068;14.452;2022-12-20T12:26:33;99941.47;;;2.22;62.29
43115;BME280;28727;50.068;14.452;2022-12-20T12:31:57;99944.88;;;2.10;63.24
43115;BME280;28727;50.068;14.452;2022-12-20T12:41:00;99920.38;;;2.13;63.75
43115;BME280;28727;50.068;14.452;2022-12-20T12:46:35;99908.16;;;2.13;63.45
43115;BME280;28727;50.068;14.452;2022-12-20T12:49:16;99911.72;;;2.12;63.77
43115;BME280;28727;50.068;14.452;2022-12-20T12:51:52;99905.28;;;2.18;63.70
43115;BME280;28727;50.068;14.452;2022-12-20T12:54:29;99906.09;;;2.18;63.99
43115;BME280;28727;50.068;14.452;2022-12-20T12:57:14;99907.47;;;2.11;64.31
43115;BME280;28727;50.068;14.452;2022-12-20T12:59:48;99909.34;;;2.22;64.04
43115;BME280;28727;50.068;14.452;2022-12-20T13:02:26;99910.19;;;2.22;63.91
43115;BME280;28727;50.068;14.452;2022-12-20T13:17:53;99910.81;;;2.38;63.76
43115;BME280;28727;50.068;14.452;2022-12-20T13:20:27;99917.28;;;2.45;64.07
43115;BME280;28727;50.068;14.452;2022-12-20T13:25:46;99895.19;;;2.51;63.74
43115;BME280;28727;50.068;14.452;2022-12-20T13:33:45;99896.34;;;2.47;63.88
43115;BME280;28727;50.068;14.452;2022-12-20T13:36:31;99896.44;;;2.45;63.39
43115;BME280;28727;50.068;14.452;2022-12-20T13:42:21;99859.94;;;2.45;63.90
43115;BME280;28727;50.068;14.452;2022-12-20T13:45:00;99878.50;;;2.41;63.52
43115;BME280;28727;50.068;14.452;2022-12-20T13:47:36;99879.34;;;2.41;63.99
43115;BME280;28727;50.068;14.452;2022-12-20T13:50:26;99885.69;;;2.37;64.32
43115;BME280;28727;50.068;14.452;2022-12-20T13:52:58;99897.88;;;2.50;70.42
43115;BME280;28727;50.068;14.452;2022-12-20T13:55:33;99893.50;;;2.63;65.25
43115;BME280;28727;50.068;14.452;2022-12-20T13:58:11;99892.69;;;2.62;63.81
43115;BME280;28727;50.068;14.452;2022-12-20T14:00:45;99898.13;;;2.59;63.53
43115;BME280;28727;50.068;14.452;2022-12-20T14:03:25;99897.78;;;2.51;63.93
43115;BME280;28727;50.068;14.452;2022-12-20T14:06:03;99900.59;;;2.48;64.14
43115;BME280;28727;50.068;14.452;2022-12-20T14:08:48;99904.03;;;2.48;64.67
43115;BME280;28727;50.068;14.452;2022-12-20T14:11:25;99888.53;;;2.47;63.95
43115;BME280;28727;50.068;14.452;2022-12-20T14:14:02;99885.38;;;2.42;64.33
43115;BME280;28727;50.068;14.452;2022-12-20T14:16:34;99894.03;;;2.42;64.72
43115;BME280;28727;50.068;14.452;2022-12-20T14:19:13;99903.75;;;2.40;64.31
43115;BME280;28727;50.068;14.452;2022-12-20T14:21:45;99891.22;;;2.33;63.71
43115;BME280;28727;50.068;14.452;2022-12-20T14:24:19;99888.09;;;2.28;64.25
43115;BME280;28727;50.068;14.452;2022-12-20T14:26:53;99891.28;;;2.19;63.91
43115;BME280;28727;50.068;14.452;2022-12-20T14:29:29;99877.03;;;2.12;64.32
43115;BME280;28727;50.068;14.452;2022-12-20T14:32:02;99872.22;;;2.05;64.63
43115;BME280;28727;50.068;14.452;2022-12-20T14:34:34;99872.22;;;2.05;65.06
43115;BME280;28727;50.068;14.452;2022-12-20T14:37:31;99859.38;;;2.02;64.79
43115;BME280;28727;50.068;14.452;2022-12-20T14:40:15;99859.69;;;1.98;65.04
43115;BME280;28727;50.068;14.452;2022-12-20T14:42:50;99858.88;;;1.97;65.45
43115;BME280;28727;50.068;14.452;2022-12-20T14:45:25;99860.84;;;1.94;65.12
43115;BME280;28727;50.068;14.452;2022-12-20T14:48:05;99853.44;;;1.88;65.59
43115;BME280;28727;50.068;14.452;2022-12-20T14:50:38;99855.09;;;1.89;65.41
43115;BME280;28727;50.068;14.452;2022-12-20T14:53:19;99850.09;;;1.86;65.61
43115;BME280;28727;50.068;14.452;2022-12-20T14:55:52;99838.41;;;1.79;66.06
43115;BME280;28727;50.068;14.452;2022-12-20T14:58:32;99833.09;;;1.80;66.20
43115;BME280;28727;50.068;14.452;2022-12-20T15:01:24;99832.50;;;1.77;66.38
43115;BME280;28727;50.068;14.452;2022-12-20T15:03:59;99827.16;;;1.78;66.33
43115;BME280;28727;50.068;14.452;2022-12-20T15:06:40;99833.41;;;1.76;66.44
43115;BME280;28727;50.068;14.452;2022-12-20T15:09:12;99830.06;;;1.74;66.62
43115;BME280;28727;50.068;14.452;2022-12-20T15:11:45;99822.75;;;1.66;66.90
43115;BME280;28727;50.068;14.452;2022-12-20T15:16:52;99800.25;;;1.65;67.01
43115;BME280;28727;50.068;14.452;2022-12-20T15:19:24;99796.28;;;1.59;66.91
43115;BME280;28727;50.068;14.452;2022-12-20T15:21:58;99807.22;;;1.52;67.80